Pilot Vessel Akarana — ZMT2938 — position and weather

sailwx.info

Track history (hours):
 
Tides and Currents Weather Stations Pressure Air Temp Water Temp Dewpoint Dewpoint Depression Visibility Wind Speed Wind Dir Waves Ship Positions

Pilot Vessel Akarana

Last reported at 2015-Mar-27 02:33 UTC. Time now 2015-Mar-27 03:39 UTC.
Position S 36°48' E 174°49'.

Length 15 m; draft 1.6 m.

Type: Pilot. MMSI: 512000344.

Date/timePositionNaut miles runAvg speedWind from/ knotsBaromVisibWave heightAir tempDewpointWater temp
2015-Mar-27 02:33S 36°48' E 174°49'3 2.5
2015-Mar-27 01:26S 36°51' E 174°47'0 0.0
2015-Mar-26 21:16S 36°51' E 174°47'4 5.0
2015-Mar-26 20:33S 36°48' E 174°49'3 3.3
2015-Mar-26 19:31S 36°51' E 174°48'1 0.8
2015-Mar-26 18:33S 36°50' E 174°48'1 1.0
2015-Mar-26 17:33S 36°51' E 174°47'3 2.9
2015-Mar-26 16:28S 36°48' E 174°49'3 3.4
2015-Mar-26 15:33S 36°51' E 174°47'0 0.0
2015-Mar-26 11:15S 36°51' E 174°47'0 0.0
2015-Mar-26 09:33S 36°51' E 174°47'0 0.0
2015-Mar-26 08:33S 36°51' E 174°47'0 0.0
2015-Mar-26 07:31S 36°51' E 174°47'5 4.9
2015-Mar-26 06:34S 36°46' E 174°49'5 4.7
2015-Mar-26 05:33S 36°51' E 174°47'0 0.0
2015-Mar-26 03:33S 36°51' E 174°47'0 0.0
2015-Mar-26 02:33S 36°51' E 174°47'4 1.9
2015-Mar-26 00:33S 36°47' E 174°48'4 2.8
2015-Mar-25 23:13S 36°51' E 174°47'0 0.2
2015-Mar-25 21:30S 36°50' E 174°47'6 6.7
2015-Mar-25 20:33S 36°45' E 174°50'4 2.2
2015-Mar-25 18:33S 36°49' E 174°49'2 0.3
2015-Mar-25 11:10S 36°51' E 174°47'0 0.2
2015-Mar-25 10:31S 36°51' E 174°47'0 0.0
2015-Mar-25 07:22S 36°51' E 174°47'4 5.1
2015-Mar-25 06:33S 36°47' E 174°48'2 0.4
2015-Mar-25 02:32S 36°48' E 174°49'3 1.7
2015-Mar-25 00:34S 36°45' E 174°50'6 6.1
2015-Mar-24 23:33S 36°51' E 174°47'1 1.1
2015-Mar-24 22:31S 36°51' E 174°48'6 5.8
2015-Mar-24 21:34S 36°45' E 174°50'6 2.9
2015-Mar-24 19:31S 36°51' E 174°47'0 0.0
2015-Mar-24 18:27S 36°51' E 174°47'7 7.7
2015-Mar-24 17:34S 36°44' E 174°50'7 6.9
2015-Mar-24 16:33S 36°51' E 174°47'0 0.0
2015-Mar-24 12:23S 36°51' E 174°47'0 0.0
2015-Mar-24 11:34S 36°51' E 174°47'0 0.0
2015-Mar-24 10:34S 36°51' E 174°47'0 0.0
2015-Mar-24 09:34S 36°51' E 174°47'0 0.3
2015-Mar-24 08:12S 36°50' E 174°47'3 4.6
2015-Mar-24 07:33S 36°48' E 174°49'0 0.4
2015-Mar-24 06:33S 36°47' E 174°49'4 3.6
2015-Mar-24 05:31S 36°51' E 174°47'0 0.0
2015-Mar-24 04:33S 36°51' E 174°47'0 0.0
2015-Mar-24 03:33S 36°51' E 174°47'0 0.4
2015-Mar-24 02:31S 36°50' E 174°47'0 0.4
2015-Mar-24 01:33S 36°51' E 174°47'0 0.0
2015-Mar-24 00:33S 36°51' E 174°47'0 0.0
2015-Mar-23 23:32S 36°51' E 174°47'0 0.0
2015-Mar-23 22:32S 36°51' E 174°47'2 2.5
2015-Mar-23 21:34S 36°49' E 174°49'2 1.2
2015-Mar-23 19:33S 36°51' E 174°47'0 0.0
2015-Mar-23 18:33S 36°51' E 174°47'5 4.7
2015-Mar-23 17:31S 36°46' E 174°49'2 1.6
2015-Mar-23 16:33S 36°48' E 174°50'4 3.7
2015-Mar-23 15:32S 36°51' E 174°47'3 0.6
2015-Mar-23 09:33S 36°47' E 174°49'1 0.5
2015-Mar-23 07:33S 36°46' E 174°49'4 3.3
2015-Mar-23 06:11S 36°51' E 174°47'0 0.0
2015-Mar-23 05:14S 36°51' E 174°47'710.1
2015-Mar-23 04:34S 36°44' E 174°50'7 5.4
2015-Mar-23 03:18S 36°51' E 174°47'0 0.0
2015-Mar-23 02:32S 36°51' E 174°47'7 6.5
2015-Mar-23 01:31S 36°45' E 174°50'5 5.0
2015-Mar-23 00:34S 36°49' E 174°50'3 2.5
2015-Mar-22 23:33S 36°51' E 174°47'0 0.4
2015-Mar-22 22:32S 36°50' E 174°47'0 0.0
2015-Mar-22 11:22S 36°50' E 174°47'0 0.3
2015-Mar-22 10:25S 36°51' E 174°47'6 3.2
2015-Mar-22 08:33S 36°45' E 174°50'6 3.0
2015-Mar-22 06:33S 36°51' E 174°47'0 0.3
2015-Mar-22 05:31S 36°50' E 174°47'0 0.2
2015-Mar-22 04:04S 36°51' E 174°47'0 0.0
2015-Mar-22 03:05S 36°51' E 174°47'0 0.5
2015-Mar-22 02:18S 36°50' E 174°47'0 0.1
2015-Mar-21 21:24S 36°51' E 174°47'0 0.0
2015-Mar-21 20:18S 36°51' E 174°47'1 1.6
2015-Mar-21 19:32S 36°51' E 174°48'1 1.2
2015-Mar-21 18:33S 36°51' E 174°47'6 6.3
2015-Mar-21 17:34S 36°45' E 174°50'1 0.5
2015-Mar-21 16:33S 36°45' E 174°50'0 0.3
2015-Mar-21 15:34S 36°45' E 174°50'6 5.1
2015-Mar-21 14:19S 36°51' E 174°47'0 0.0
2015-Mar-21 13:32S 36°51' E 174°47'3 3.1
2015-Mar-21 12:33S 36°48' E 174°50'3 2.9
2015-Mar-21 11:29S 36°51' E 174°47'0 0.0
2015-Mar-21 10:33S 36°51' E 174°47'0 0.0
2015-Mar-21 09:31S 36°51' E 174°47'3 2.9
2015-Mar-21 08:25S 36°48' E 174°49'3 3.4
2015-Mar-21 07:33S 36°50' E 174°47'2 2.4
2015-Mar-21 06:34S 36°49' E 174°49'1 0.9
2015-Mar-21 05:34S 36°50' E 174°49'3 1.0
2015-Mar-21 02:26S 36°47' E 174°49'4 1.3
2015-Mar-20 23:33S 36°50' E 174°48'1 0.4
2015-Mar-20 21:33S 36°50' E 174°49'2 1.6
2015-Mar-20 20:32S 36°48' E 174°49'0 0.5
2015-Mar-20 19:34S 36°48' E 174°49'3 2.4
2015-Mar-20 18:10S 36°51' E 174°47'1 1.8
2015-Mar-20 17:30S 36°51' E 174°48'4 3.9
2015-Mar-20 16:34S 36°47' E 174°49'4 0.9
2015-Mar-20 12:32S 36°50' E 174°47'4 3.7
2015-Mar-20 11:33S 36°48' E 174°50'2 2.4
2015-Mar-20 10:33S 36°45' E 174°50'6 1.5
2015-Mar-20 06:26S 36°51' E 174°47'0 0.0
2015-Mar-20 05:29S 36°51' E 174°47'2 2.1
2015-Mar-20 04:33S 36°50' E 174°49'2 1.9
2015-Mar-20 03:29S 36°51' E 174°47'3 2.8
2015-Mar-20 02:33S 36°48' E 174°49'3 2.5
2015-Mar-20 01:30S 36°51' E 174°47'0 0.3
2015-Mar-20 00:27S 36°50' E 174°47'0 0.1
2015-Mar-19 22:26S 36°51' E 174°47'4 4.9
2015-Mar-19 21:33S 36°47' E 174°48'4 4.1
2015-Mar-19 20:32S 36°51' E 174°47'0 0.3
2015-Mar-19 19:32S 36°50' E 174°47'0 0.3
2015-Mar-19 18:33S 36°51' E 174°47'0 0.0
2015-Mar-19 17:21S 36°51' E 174°47'6 7.4
2015-Mar-19 16:33S 36°45' E 174°49'6 5.9
2015-Mar-19 15:33S 36°51' E 174°47'0 0.0
2015-Mar-19 12:28S 36°51' E 174°47'0 0.0
2015-Mar-19 11:12S 36°51' E 174°47'0 0.0
2015-Mar-19 10:27S 36°51' E 174°47'0 0.0
2015-Mar-19 09:33S 36°51' E 174°47'0 0.0
2015-Mar-19 08:31S 36°51' E 174°47'0 0.0
2015-Mar-19 07:26S 36°51' E 174°47'0 0.0
2015-Mar-19 06:30S 36°51' E 174°47'0 0.0
2015-Mar-19 05:11S 36°51' E 174°47'3 5.5
2015-Mar-19 04:34S 36°48' E 174°49'3 3.0
2015-Mar-19 03:25S 36°51' E 174°47'0 0.0
2015-Mar-19 02:24S 36°51' E 174°47'0 0.0
2015-Mar-19 01:33S 36°51' E 174°47'4 3.7
2015-Mar-19 00:34S 36°47' E 174°49'4 4.0
2015-Mar-18 23:33S 36°44' E 174°51'7 3.4
2015-Mar-18 21:24S 36°51' E 174°48'1 1.4
2015-Mar-18 20:32S 36°51' E 174°47'6 5.9
2015-Mar-18 19:33S 36°45' E 174°49'1 0.9
2015-Mar-18 18:33S 36°45' E 174°50'7 6.7
2015-Mar-18 17:33S 36°51' E 174°47'7 7.0
2015-Mar-18 16:33S 36°44' E 174°50'7 7.1
2015-Mar-18 15:33S 36°51' E 174°47'0 0.0
2015-Mar-18 09:17S 36°51' E 174°47'912.0
2015-Mar-18 08:34S 36°43' E 174°52'8 8.3
2015-Mar-18 07:32S 36°50' E 174°47'0 0.3
2015-Mar-18 06:33S 36°51' E 174°47'0 0.0
2015-Mar-18 05:33S 36°51' E 174°47'0 0.0
2015-Mar-18 04:33S 36°51' E 174°47'0 0.0
2015-Mar-18 03:31S 36°51' E 174°47'0 0.0
2015-Mar-18 02:33S 36°51' E 174°47'0 0.1
2015-Mar-18 01:33S 36°51' E 174°47'0 0.1
2015-Mar-18 00:31S 36°51' E 174°47'9 9.0
2015-Mar-17 23:33S 36°43' E 174°51'6 2.0
2015-Mar-17 20:33S 36°48' E 174°49'3 3.0
2015-Mar-17 19:33S 36°51' E 174°47'0 0.0
2015-Mar-17 18:17S 36°51' E 174°47'0 0.0
2015-Mar-17 17:32S 36°51' E 174°47'2 2.4
2015-Mar-17 16:34S 36°49' E 174°49'2 2.2
2015-Mar-17 15:31S 36°51' E 174°47'  
Track history (hours):
 
Tides and Currents Weather Stations Pressure Air Temp Water Temp Dewpoint Dewpoint Depression Visibility Wind Speed Wind Dir Waves Ship Positions

Pilot Vessel Akarana

Last reported at 2015-Mar-27 02:33 UTC. Time now 2015-Mar-27 03:39 UTC.
Position S 36°48' E 174°49'.

Length 15 m; draft 1.6 m.

Type: Pilot. MMSI: 512000344.

Date/timePositionNaut miles runAvg speedWind from/ knotsBaromVisibWave heightAir tempDewpointWater temp
2015-Mar-27 02:33S 36°48' E 174°49'3 2.5
2015-Mar-27 01:26S 36°51' E 174°47'0 0.0
2015-Mar-26 21:16S 36°51' E 174°47'4 5.0
2015-Mar-26 20:33S 36°48' E 174°49'3 3.3
2015-Mar-26 19:31S 36°51' E 174°48'1 0.8
2015-Mar-26 18:33S 36°50' E 174°48'1 1.0
2015-Mar-26 17:33S 36°51' E 174°47'3 2.9
2015-Mar-26 16:28S 36°48' E 174°49'3 3.4
2015-Mar-26 15:33S 36°51' E 174°47'0 0.0
2015-Mar-26 11:15S 36°51' E 174°47'0 0.0
2015-Mar-26 09:33S 36°51' E 174°47'0 0.0
2015-Mar-26 08:33S 36°51' E 174°47'0 0.0
2015-Mar-26 07:31S 36°51' E 174°47'5 4.9
2015-Mar-26 06:34S 36°46' E 174°49'5 4.7
2015-Mar-26 05:33S 36°51' E 174°47'0 0.0
2015-Mar-26 03:33S 36°51' E 174°47'0 0.0
2015-Mar-26 02:33S 36°51' E 174°47'4 1.9
2015-Mar-26 00:33S 36°47' E 174°48'4 2.8
2015-Mar-25 23:13S 36°51' E 174°47'0 0.2
2015-Mar-25 21:30S 36°50' E 174°47'6 6.7
2015-Mar-25 20:33S 36°45' E 174°50'4 2.2
2015-Mar-25 18:33S 36°49' E 174°49'2 0.3
2015-Mar-25 11:10S 36°51' E 174°47'0 0.2
2015-Mar-25 10:31S 36°51' E 174°47'0 0.0
2015-Mar-25 07:22S 36°51' E 174°47'4 5.1
2015-Mar-25 06:33S 36°47' E 174°48'2 0.4
2015-Mar-25 02:32S 36°48' E 174°49'3 1.7
2015-Mar-25 00:34S 36°45' E 174°50'6 6.1
2015-Mar-24 23:33S 36°51' E 174°47'1 1.1
2015-Mar-24 22:31S 36°51' E 174°48'6 5.8
2015-Mar-24 21:34S 36°45' E 174°50'6 2.9
2015-Mar-24 19:31S 36°51' E 174°47'0 0.0
2015-Mar-24 18:27S 36°51' E 174°47'7 7.7
2015-Mar-24 17:34S 36°44' E 174°50'7 6.9
2015-Mar-24 16:33S 36°51' E 174°47'0 0.0
2015-Mar-24 12:23S 36°51' E 174°47'0 0.0
2015-Mar-24 11:34S 36°51' E 174°47'0 0.0
2015-Mar-24 10:34S 36°51' E 174°47'0 0.0
2015-Mar-24 09:34S 36°51' E 174°47'0 0.3
2015-Mar-24 08:12S 36°50' E 174°47'3 4.6
2015-Mar-24 07:33S 36°48' E 174°49'0 0.4
2015-Mar-24 06:33S 36°47' E 174°49'4 3.6
2015-Mar-24 05:31S 36°51' E 174°47'0 0.0
2015-Mar-24 04:33S 36°51' E 174°47'0 0.0
2015-Mar-24 03:33S 36°51' E 174°47'0 0.4
2015-Mar-24 02:31S 36°50' E 174°47'0 0.4
2015-Mar-24 01:33S 36°51' E 174°47'0 0.0
2015-Mar-24 00:33S 36°51' E 174°47'0 0.0
2015-Mar-23 23:32S 36°51' E 174°47'0 0.0
2015-Mar-23 22:32S 36°51' E 174°47'2 2.5
2015-Mar-23 21:34S 36°49' E 174°49'2 1.2
2015-Mar-23 19:33S 36°51' E 174°47'0 0.0
2015-Mar-23 18:33S 36°51' E 174°47'5 4.7
2015-Mar-23 17:31S 36°46' E 174°49'2 1.6
2015-Mar-23 16:33S 36°48' E 174°50'4 3.7
2015-Mar-23 15:32S 36°51' E 174°47'3 0.6
2015-Mar-23 09:33S 36°47' E 174°49'1 0.5
2015-Mar-23 07:33S 36°46' E 174°49'4 3.3
2015-Mar-23 06:11S 36°51' E 174°47'0 0.0
2015-Mar-23 05:14S 36°51' E 174°47'710.1
2015-Mar-23 04:34S 36°44' E 174°50'7 5.4
2015-Mar-23 03:18S 36°51' E 174°47'0 0.0
2015-Mar-23 02:32S 36°51' E 174°47'7 6.5
2015-Mar-23 01:31S 36°45' E 174°50'5 5.0
2015-Mar-23 00:34S 36°49' E 174°50'3 2.5
2015-Mar-22 23:33S 36°51' E 174°47'0 0.4
2015-Mar-22 22:32S 36°50' E 174°47'0 0.0
2015-Mar-22 11:22S 36°50' E 174°47'0 0.3
2015-Mar-22 10:25S 36°51' E 174°47'6 3.2
2015-Mar-22 08:33S 36°45' E 174°50'6 3.0
2015-Mar-22 06:33S 36°51' E 174°47'0 0.3
2015-Mar-22 05:31S 36°50' E 174°47'0 0.2
2015-Mar-22 04:04S 36°51' E 174°47'0 0.0
2015-Mar-22 03:05S 36°51' E 174°47'0 0.5
2015-Mar-22 02:18S 36°50' E 174°47'0 0.1
2015-Mar-21 21:24S 36°51' E 174°47'0 0.0
2015-Mar-21 20:18S 36°51' E 174°47'1 1.6
2015-Mar-21 19:32S 36°51' E 174°48'1 1.2
2015-Mar-21 18:33S 36°51' E 174°47'6 6.3
2015-Mar-21 17:34S 36°45' E 174°50'1 0.5
2015-Mar-21 16:33S 36°45' E 174°50'0 0.3
2015-Mar-21 15:34S 36°45' E 174°50'6 5.1
2015-Mar-21 14:19S 36°51' E 174°47'0 0.0
2015-Mar-21 13:32S 36°51' E 174°47'3 3.1
2015-Mar-21 12:33S 36°48' E 174°50'3 2.9
2015-Mar-21 11:29S 36°51' E 174°47'0 0.0
2015-Mar-21 10:33S 36°51' E 174°47'0 0.0
2015-Mar-21 09:31S 36°51' E 174°47'3 2.9
2015-Mar-21 08:25S 36°48' E 174°49'3 3.4
2015-Mar-21 07:33S 36°50' E 174°47'2 2.4
2015-Mar-21 06:34S 36°49' E 174°49'1 0.9
2015-Mar-21 05:34S 36°50' E 174°49'3 1.0
2015-Mar-21 02:26S 36°47' E 174°49'4 1.3
2015-Mar-20 23:33S 36°50' E 174°48'1 0.4
2015-Mar-20 21:33S 36°50' E 174°49'2 1.6
2015-Mar-20 20:32S 36°48' E 174°49'0 0.5
2015-Mar-20 19:34S 36°48' E 174°49'3 2.4
2015-Mar-20 18:10S 36°51' E 174°47'1 1.8
2015-Mar-20 17:30S 36°51' E 174°48'4 3.9
2015-Mar-20 16:34S 36°47' E 174°49'4 0.9
2015-Mar-20 12:32S 36°50' E 174°47'4 3.7
2015-Mar-20 11:33S 36°48' E 174°50'2 2.4
2015-Mar-20 10:33S 36°45' E 174°50'6 1.5
2015-Mar-20 06:26S 36°51' E 174°47'0 0.0
2015-Mar-20 05:29S 36°51' E 174°47'2 2.1
2015-Mar-20 04:33S 36°50' E 174°49'2 1.9
2015-Mar-20 03:29S 36°51' E 174°47'3 2.8
2015-Mar-20 02:33S 36°48' E 174°49'3 2.5
2015-Mar-20 01:30S 36°51' E 174°47'0 0.3
2015-Mar-20 00:27S 36°50' E 174°47'0 0.1
2015-Mar-19 22:26S 36°51' E 174°47'4 4.9
2015-Mar-19 21:33S 36°47' E 174°48'4 4.1
2015-Mar-19 20:32S 36°51' E 174°47'0 0.3
2015-Mar-19 19:32S 36°50' E 174°47'0 0.3
2015-Mar-19 18:33S 36°51' E 174°47'0 0.0
2015-Mar-19 17:21S 36°51' E 174°47'6 7.4
2015-Mar-19 16:33S 36°45' E 174°49'6 5.9
2015-Mar-19 15:33S 36°51' E 174°47'0 0.0
2015-Mar-19 12:28S 36°51' E 174°47'0 0.0
2015-Mar-19 11:12S 36°51' E 174°47'0 0.0
2015-Mar-19 10:27S 36°51' E 174°47'0 0.0
2015-Mar-19 09:33S 36°51' E 174°47'0 0.0
2015-Mar-19 08:31S 36°51' E 174°47'0 0.0
2015-Mar-19 07:26S 36°51' E 174°47'0 0.0
2015-Mar-19 06:30S 36°51' E 174°47'0 0.0
2015-Mar-19 05:11S 36°51' E 174°47'3 5.5
2015-Mar-19 04:34S 36°48' E 174°49'3 3.0
2015-Mar-19 03:25S 36°51' E 174°47'0 0.0
2015-Mar-19 02:24S 36°51' E 174°47'0 0.0
2015-Mar-19 01:33S 36°51' E 174°47'4 3.7
2015-Mar-19 00:34S 36°47' E 174°49'4 4.0
2015-Mar-18 23:33S 36°44' E 174°51'7 3.4
2015-Mar-18 21:24S 36°51' E 174°48'1 1.4
2015-Mar-18 20:32S 36°51' E 174°47'6 5.9
2015-Mar-18 19:33S 36°45' E 174°49'1 0.9
2015-Mar-18 18:33S 36°45' E 174°50'7 6.7
2015-Mar-18 17:33S 36°51' E 174°47'7 7.0
2015-Mar-18 16:33S 36°44' E 174°50'7 7.1
2015-Mar-18 15:33S 36°51' E 174°47'0 0.0
2015-Mar-18 09:17S 36°51' E 174°47'912.0
2015-Mar-18 08:34S 36°43' E 174°52'8 8.3
2015-Mar-18 07:32S 36°50' E 174°47'0 0.3
2015-Mar-18 06:33S 36°51' E 174°47'0 0.0
2015-Mar-18 05:33S 36°51' E 174°47'0 0.0
2015-Mar-18 04:33S 36°51' E 174°47'0 0.0
2015-Mar-18 03:31S 36°51' E 174°47'0 0.0
2015-Mar-18 02:33S 36°51' E 174°47'0 0.1
2015-Mar-18 01:33S 36°51' E 174°47'0 0.1
2015-Mar-18 00:31S 36°51' E 174°47'9 9.0
2015-Mar-17 23:33S 36°43' E 174°51'6 2.0
2015-Mar-17 20:33S 36°48' E 174°49'3 3.0
2015-Mar-17 19:33S 36°51' E 174°47'0 0.0
2015-Mar-17 18:17S 36°51' E 174°47'0 0.0
2015-Mar-17 17:32S 36°51' E 174°47'2 2.4
2015-Mar-17 16:34S 36°49' E 174°49'2 2.2
2015-Mar-17 15:31S 36°51' E 174°47'  

Dump ship's entire track history